Time;durP1;ratioP1;P1;durP2;ratioP2;P2;SDS_P1;SDS_P2;PMS_P1;PMS_P2;Temp;Humidity;BMP_temperature;BMP_pressure;BME280_temperature;BME280_humidity;BME280_pressure;Samples;Min_cycle;Max_cycle;Signal;HPM_P1;HPM_P2
2022/10/01 00:03:02;;;;;;;12.23;9.37;;;4.00;99.90;;;;;;8356735;28;20213;-66
2022/10/01 00:07:08;;;;;;;14.73;9.97;;;3.90;99.90;;;;;;8357985;28;20182;-67
2022/10/01 00:11:12;;;;;;;13.17;9.43;;;3.90;99.90;;;;;;8349140;28;20185;-66
2022/10/01 00:15:18;;;;;;;15.13;11.07;;;3.90;99.90;;;;;;8361561;28;20230;-66
2022/10/01 00:19:20;;;;;;;13.40;9.67;;;3.90;99.90;;;;;;8362341;28;20185;-66
2022/10/01 00:23:21;;;;;;;12.77;9.50;;;3.80;99.90;;;;;;8358011;28;20203;-66
2022/10/01 00:27:22;;;;;;;14.50;10.67;;;3.80;99.90;;;;;;8362236;28;20244;-66
2022/10/01 00:31:24;;;;;;;13.13;9.90;;;3.70;99.90;;;;;;8355228;28;20258;-66
2022/10/01 00:35:25;;;;;;;11.70;9.10;;;3.60;99.90;;;;;;8355908;28;20203;-66
2022/10/01 00:39:25;;;;;;;11.50;8.80;;;3.60;99.90;;;;;;8358131;28;20603;-66
2022/10/01 00:43:29;;;;;;;13.17;9.70;;;3.50;99.90;;;;;;8365588;28;20211;-73
2022/10/01 00:47:47;;;;;;;14.37;9.50;;;3.40;99.90;;;;;;8363836;28;20208;-66
2022/10/01 00:51:56;;;;;;;12.73;9.63;;;3.40;99.90;;;;;;8358723;28;20302;-67
2022/10/01 00:55:58;;;;;;;16.17;12.03;;;3.30;99.90;;;;;;8357162;28;20211;-67
2022/10/01 01:00:03;;;;;;;28.53;19.10;;;3.30;99.90;;;;;;8369030;28;20182;-66
2022/10/01 01:04:15;;;;;;;30.07;19.23;;;3.30;99.90;;;;;;8363454;28;20224;-66
2022/10/01 01:08:16;;;;;;;28.70;17.03;;;3.40;99.90;;;;;;8362987;28;20184;-67
2022/10/01 01:12:38;;;;;;;21.57;15.20;;;3.30;99.90;;;;;;8362321;28;20200;-66
2022/10/01 01:16:54;;;;;;;14.07;11.23;;;3.30;99.90;;;;;;8361069;28;20279;-66
2022/10/01 01:21:28;;;;;;;16.53;11.20;;;3.20;99.90;;;;;;8365857;28;20210;-66
2022/10/01 01:25:52;;;;;;;15.33;10.67;;;3.20;99.90;;;;;;8365010;28;20182;-67
2022/10/01 01:30:03;;;;;;;13.97;10.87;;;3.10;99.90;;;;;;8367463;28;20267;-66
2022/10/01 01:34:11;;;;;;;18.73;12.87;;;3.10;99.90;;;;;;8353096;28;20485;-67
2022/10/01 01:38:19;;;;;;;23.30;14.47;;;3.00;99.90;;;;;;8363761;28;20180;-66
2022/10/01 01:42:31;;;;;;;26.03;15.40;;;3.10;99.90;;;;;;8360181;28;20205;-67
2022/10/01 01:46:35;;;;;;;25.90;15.00;;;3.10;99.90;;;;;;8365214;28;20184;-66
2022/10/01 01:51:01;;;;;;;27.30;14.93;;;3.00;99.90;;;;;;8365887;28;20187;-66
2022/10/01 01:55:07;;;;;;;23.53;13.23;;;2.90;99.90;;;;;;8356396;28;21865;-66
2022/10/01 01:59:09;;;;;;;19.77;11.07;;;2.80;99.90;;;;;;8363403;28;20178;-66
2022/10/01 02:03:10;;;;;;;23.77;12.43;;;2.70;99.90;;;;;;8362068;28;20219;-66
2022/10/01 02:07:15;;;;;;;21.47;12.37;;;2.60;99.90;;;;;;8363333;28;20587;-66
2022/10/01 02:11:22;;;;;;;18.80;11.73;;;2.60;99.90;;;;;;8364008;28;20226;-66
2022/10/01 02:15:30;;;;;;;17.00;10.80;;;2.50;99.90;;;;;;8361846;28;20190;-66
2022/10/01 02:20:27;;;;;;;20.10;12.10;;;2.50;99.90;;;;;;8364854;28;20184;-70
2022/10/01 02:24:46;;;;;;;25.87;16.10;;;2.40;99.90;;;;;;8324915;28;20285;-66
2022/10/01 02:28:49;;;;;;;22.80;14.20;;;2.40;99.90;;;;;;8367034;28;20217;-66
2022/10/01 02:32:51;;;;;;;23.03;14.90;;;2.40;99.90;;;;;;8360460;28;20183;-66
2022/10/01 02:36:54;;;;;;;28.57;17.10;;;2.40;99.90;;;;;;8363611;28;20182;-67
2022/10/01 02:40:59;;;;;;;22.50;15.80;;;2.40;99.90;;;;;;8379834;28;20209;-66
2022/10/01 02:45:02;;;;;;;28.27;19.13;;;2.50;99.90;;;;;;8365001;28;20185;-65
2022/10/01 02:49:03;;;;;;;23.53;15.30;;;2.50;99.90;;;;;;8363014;28;20245;-66
2022/10/01 02:53:09;;;;;;;20.83;15.03;;;2.40;99.90;;;;;;8364166;28;20192;-66
2022/10/01 02:57:26;;;;;;;24.03;15.67;;;2.30;99.90;;;;;;8359883;28;20177;-66
2022/10/01 03:01:27;;;;;;;27.83;16.47;;;2.30;99.90;;;;;;8351453;28;20236;-66
2022/10/01 03:05:27;;;;;;;27.20;16.23;;;2.30;99.90;;;;;;8362638;28;20511;-66
2022/10/01 03:09:30;;;;;;;20.33;14.70;;;2.40;99.90;;;;;;8359953;28;20184;-66
2022/10/01 03:13:31;;;;;;;22.33;14.30;;;2.40;99.90;;;;;;8358827;28;20209;-66
2022/10/01 03:17:31;;;;;;;22.37;14.40;;;2.30;99.90;;;;;;8365114;28;20416;-67
2022/10/01 03:21:32;;;;;;;20.37;14.33;;;2.40;99.90;;;;;;8367305;28;20301;-66
2022/10/01 03:25:33;;;;;;;20.20;13.97;;;2.30;99.90;;;;;;8361014;28;20318;-66
2022/10/01 03:29:34;;;;;;;19.27;12.90;;;2.20;99.90;;;;;;8363834;28;20178;-67
2022/10/01 03:33:35;;;;;;;19.77;12.83;;;2.20;99.90;;;;;;8359245;28;20194;-67
2022/10/01 03:37:36;;;;;;;21.63;14.67;;;2.20;99.90;;;;;;8357140;28;20184;-66
2022/10/01 03:41:36;;;;;;;29.67;16.10;;;2.10;99.90;;;;;;8358213;28;20225;-66
2022/10/01 03:45:38;;;;;;;32.33;16.93;;;2.10;99.90;;;;;;8356441;28;20314;-66
2022/10/01 03:49:38;;;;;;;26.27;17.47;;;2.10;99.90;;;;;;8368498;28;20181;-66
2022/10/01 03:53:39;;;;;;;29.07;16.53;;;2.10;99.90;;;;;;8363104;28;20221;-66
2022/10/01 03:57:40;;;;;;;27.67;16.90;;;2.10;99.90;;;;;;8358448;28;20193;-66
2022/10/01 04:01:41;;;;;;;23.43;15.03;;;2.10;99.90;;;;;;8355216;28;20209;-66
2022/10/01 04:05:43;;;;;;;26.17;15.57;;;2.10;99.90;;;;;;8377648;28;20185;-66
2022/10/01 04:09:44;;;;;;;23.40;14.73;;;2.10;99.90;;;;;;8356379;28;20181;-66
2022/10/01 04:13:44;;;;;;;31.13;24.67;;;2.10;99.90;;;;;;8358993;28;20280;-66
2022/10/01 04:17:45;;;;;;;32.00;23.37;;;2.10;99.90;;;;;;8349166;28;20189;-66
2022/10/01 04:21:46;;;;;;;27.07;18.30;;;2.10;99.90;;;;;;8361156;28;20205;-66
2022/10/01 04:25:47;;;;;;;24.50;16.63;;;2.10;99.90;;;;;;8366430;28;20190;-66
2022/10/01 04:29:48;;;;;;;21.10;14.87;;;2.10;99.90;;;;;;8362158;28;20185;-66
2022/10/01 04:33:51;;;;;;;19.13;13.77;;;2.10;99.90;;;;;;8363533;28;20209;-66
2022/10/01 04:37:57;;;;;;;17.67;13.47;;;2.10;99.90;;;;;;8363416;28;20247;-66
2022/10/01 04:41:58;;;;;;;18.23;12.47;;;2.20;99.90;;;;;;8364614;28;20245;-66
2022/10/01 04:45:59;;;;;;;21.17;13.93;;;2.10;99.90;;;;;;8364330;28;20181;-67
2022/10/01 04:50:00;;;;;;;18.97;13.47;;;2.10;99.90;;;;;;8363189;28;20188;-68
2022/10/01 04:54:01;;;;;;;18.70;13.70;;;2.10;99.90;;;;;;8353296;28;20185;-66
2022/10/01 04:58:02;;;;;;;18.00;12.13;;;2.10;99.90;;;;;;8363259;28;20177;-66
2022/10/01 05:02:03;;;;;;;16.87;12.40;;;2.10;99.90;;;;;;8362979;28;20202;-66
2022/10/01 05:06:04;;;;;;;20.23;14.67;;;2.10;99.90;;;;;;8364985;28;20170;-66
2022/10/01 05:10:07;;;;;;;28.33;17.97;;;2.10;99.90;;;;;;8368874;28;20220;-65
2022/10/01 05:14:10;;;;;;;23.30;15.13;;;2.10;99.90;;;;;;8361278;28;20223;-66
2022/10/01 05:18:11;;;;;;;27.80;18.60;;;2.10;99.90;;;;;;8364130;28;20186;-66
2022/10/01 05:22:12;;;;;;;36.80;22.87;;;2.20;99.90;;;;;;8370786;28;20201;-66
2022/10/01 05:26:13;;;;;;;42.73;25.30;;;2.20;99.90;;;;;;8363274;28;20181;-67
2022/10/01 05:30:24;;;;;;;42.60;28.53;;;2.30;99.90;;;;;;8384353;28;20262;-66
2022/10/01 05:34:25;;;;;;;44.30;31.33;;;2.40;99.90;;;;;;8364097;28;20192;-66
2022/10/01 05:38:26;;;;;;;33.53;24.60;;;2.50;99.90;;;;;;8366486;28;20201;-66
2022/10/01 05:42:27;;;;;;;33.27;21.60;;;2.60;99.90;;;;;;8363473;28;20225;-66
2022/10/01 05:46:27;;;;;;;29.73;20.10;;;2.70;99.90;;;;;;8364720;28;20189;-66
2022/10/01 05:50:30;;;;;;;28.00;19.33;;;2.70;99.90;;;;;;8364180;28;20222;-66
2022/10/01 05:54:31;;;;;;;32.73;23.13;;;2.80;99.90;;;;;;8367396;28;20179;-66
2022/10/01 05:58:32;;;;;;;40.37;27.47;;;2.90;99.90;;;;;;8366787;28;20189;-66
2022/10/01 06:02:33;;;;;;;42.87;29.17;;;3.00;99.90;;;;;;8358406;28;20220;-65
2022/10/01 06:06:34;;;;;;;62.13;46.87;;;3.10;99.90;;;;;;8364589;28;20187;-67
2022/10/01 06:10:35;;;;;;;66.87;47.67;;;3.40;99.90;;;;;;8361071;28;20181;-67
2022/10/01 06:14:36;;;;;;;59.13;45.57;;;3.60;99.90;;;;;;8362299;28;20209;-67
2022/10/01 06:18:37;;;;;;;55.20;40.00;;;3.90;99.90;;;;;;8364701;28;20183;-67
2022/10/01 06:22:39;;;;;;;63.83;43.47;;;4.20;99.90;;;;;;8365879;28;20292;-67
2022/10/01 06:26:40;;;;;;;71.63;47.07;;;4.40;99.90;;;;;;8364958;28;20185;-67
2022/10/01 06:30:42;;;;;;;76.73;49.93;;;4.60;99.90;;;;;;8359719;28;20192;-66
2022/10/01 06:34:43;;;;;;;74.60;51.53;;;4.90;99.90;;;;;;8361113;28;20177;-67
2022/10/01 06:38:48;;;;;;;72.47;48.57;;;5.40;99.90;;;;;;8362660;28;20225;-67
2022/10/01 06:42:52;;;;;;;62.90;40.53;;;6.00;99.90;;;;;;8352704;28;20216;-67
2022/10/01 06:46:53;;;;;;;41.80;31.07;;;6.60;99.90;;;;;;8355910;28;20197;-68
2022/10/01 06:50:54;;;;;;;16.50;12.77;;;7.30;99.90;;;;;;8357950;28;20255;-67
2022/10/01 06:54:55;;;;;;;15.23;10.87;;;8.20;99.90;;;;;;8356625;28;20370;-68
2022/10/01 06:58:56;;;;;;;13.47;10.47;;;8.90;99.90;;;;;;8364985;28;20190;-67
2022/10/01 07:02:59;;;;;;;11.90;9.10;;;9.50;99.90;;;;;;8366148;28;20301;-67
2022/10/01 07:07:03;;;;;;;9.03;7.90;;;9.90;99.90;;;;;;8362561;28;20179;-67
2022/10/01 07:11:04;;;;;;;8.27;7.40;;;10.30;99.90;;;;;;8360267;28;20544;-67
2022/10/01 07:15:06;;;;;;;7.70;6.83;;;10.70;99.90;;;;;;8366663;28;20217;-67
2022/10/01 07:19:07;;;;;;;7.50;6.37;;;11.10;99.90;;;;;;8354146;28;20181;-68
2022/10/01 07:23:13;;;;;;;7.47;5.50;;;11.50;99.90;;;;;;8361699;28;20201;-69
2022/10/01 07:27:18;;;;;;;6.00;5.43;;;12.00;99.90;;;;;;8362313;28;20762;-67
2022/10/01 07:31:20;;;;;;;5.40;4.47;;;12.40;99.90;;;;;;8361356;28;20181;-69
2022/10/01 07:35:21;;;;;;;4.33;3.93;;;12.80;99.90;;;;;;8360330;28;20296;-68
2022/10/01 07:39:22;;;;;;;5.27;3.97;;;13.30;28.10;;;;;;8361614;28;20264;-67
2022/10/01 07:43:24;;;;;;;4.83;2.77;;;13.70;99.90;;;;;;8359862;28;20217;-66
2022/10/01 07:47:24;;;;;;;2.70;2.50;;;14.00;99.90;;;;;;8361131;28;20260;-68
2022/10/01 07:51:26;;;;;;;3.50;2.73;;;14.40;1.00;;;;;;8354705;28;20186;-67
2022/10/01 07:55:29;;;;;;;3.27;2.80;;;14.80;1.00;;;;;;8355461;28;20194;-69
2022/10/01 07:59:30;;;;;;;2.63;2.23;;;15.40;99.90;;;;;;8372896;28;20189;-70
2022/10/01 08:03:31;;;;;;;3.43;2.20;;;15.90;99.90;;;;;;8374369;28;20229;-68
2022/10/01 08:07:32;;;;;;;3.87;2.57;;;16.00;99.90;;;;;;8364376;28;20266;-68
2022/10/01 08:11:33;;;;;;;3.50;2.40;;;16.10;99.90;;;;;;8341638;28;20197;-68
2022/10/01 08:15:34;;;;;;;2.97;2.67;;;16.00;99.90;;;;;;8369412;28;20192;-68
2022/10/01 08:19:35;;;;;;;2.97;2.23;;;15.90;99.90;;;;;;8355761;28;20177;-66
2022/10/01 08:23:36;;;;;;;4.13;2.47;;;15.80;99.90;;;;;;8360601;28;20265;-68
2022/10/01 08:27:37;;;;;;;3.27;2.17;;;15.70;99.90;;;;;;8355613;28;20281;-69
2022/10/01 08:31:38;;;;;;;2.90;2.50;;;15.60;99.90;;;;;;8361476;28;20262;-67
2022/10/01 08:35:39;;;;;;;2.83;2.50;;;16.00;99.90;;;;;;8359068;28;20240;-67
2022/10/01 08:39:40;;;;;;;2.87;2.53;;;16.40;99.90;;;;;;8359298;28;20187;-68
2022/10/01 08:43:41;;;;;;;2.43;2.20;;;16.70;99.90;;;;;;8362623;28;20190;-67
2022/10/01 08:47:55;;;;;;;2.60;2.40;;;17.10;99.90;;;;;;8359288;28;20213;-67
2022/10/01 08:52:22;;;;;;;3.67;2.30;;;17.30;99.90;;;;;;8365349;28;20230;-67
2022/10/01 08:56:45;;;;;;;3.50;2.63;;;17.60;99.90;;;;;;8359587;28;20182;-69
2022/10/01 09:00:48;;;;;;;2.67;2.30;;;17.90;93.80;;;;;;8357592;28;20279;-66
2022/10/01 09:04:53;;;;;;;3.97;2.53;;;18.20;70.10;;;;;;8359608;28;20228;-66
2022/10/01 09:09:31;;;;;;;3.03;2.40;;;18.50;51.30;;;;;;8380313;28;20180;-67
2022/10/01 09:14:10;;;;;;;2.47;1.97;;;18.60;30.20;;;;;;8364135;28;20213;-67
2022/10/01 09:18:21;;;;;;;3.60;2.40;;;18.20;38.10;;;;;;8356882;28;20196;-68
2022/10/01 09:22:37;;;;;;;2.37;1.60;;;18.10;53.30;;;;;;8364870;28;20173;-69
2022/10/01 09:26:42;;;;;;;1.40;1.30;;;18.10;82.90;;;;;;8371760;28;20193;-69
2022/10/01 09:31:07;;;;;;;1.73;1.43;;;18.00;33.10;;;;;;8365121;28;20181;-67
2022/10/01 09:35:42;;;;;;;2.07;1.30;;;17.90;26.30;;;;;;8363822;28;20174;-68
2022/10/01 09:40:03;;;;;;;1.57;1.37;;;17.90;29.10;;;;;;8351947;28;20276;-68
2022/10/01 09:44:05;;;;;;;1.70;1.60;;;17.90;33.20;;;;;;8354862;28;20292;-68
2022/10/01 09:48:24;;;;;;;2.90;1.43;;;17.80;29.80;;;;;;8362285;28;20193;-69
2022/10/01 09:52:36;;;;;;;1.93;1.40;;;17.70;48.40;;;;;;8365022;28;20232;-69
2022/10/01 09:56:48;;;;;;;1.87;1.50;;;17.40;44.80;;;;;;8359494;28;20259;-69
2022/10/01 10:00:52;;;;;;;2.03;1.60;;;17.10;90.50;;;;;;8367388;28;20229;-67
2022/10/01 10:05:04;;;;;;;1.80;1.27;;;16.70;97.30;;;;;;8360393;28;20583;-67
2022/10/01 10:09:15;;;;;;;2.50;1.73;;;16.50;99.90;;;;;;8362946;28;20416;-68
2022/10/01 10:13:49;;;;;;;1.73;1.53;;;16.40;99.90;;;;;;8362122;28;20263;-68
2022/10/01 10:17:51;;;;;;;2.80;2.03;;;16.40;99.90;;;;;;8349544;28;20196;-68
2022/10/01 10:21:59;;;;;;;2.73;1.73;;;16.60;99.90;;;;;;8355928;28;20189;-67
2022/10/01 10:26:05;;;;;;;2.47;1.73;;;16.70;99.90;;;;;;8350399;28;20207;-67
2022/10/01 10:30:12;;;;;;;1.87;1.50;;;16.80;99.90;;;;;;8374811;28;20531;-67
2022/10/01 10:34:45;;;;;;;3.30;2.50;;;16.80;99.90;;;;;;8365595;28;20213;-69
2022/10/01 10:38:49;;;;;;;2.47;2.23;;;16.90;99.90;;;;;;8350723;28;20190;-68
2022/10/01 10:42:52;;;;;;;2.50;2.17;;;16.90;99.90;;;;;;8361882;28;20188;-68
2022/10/01 10:46:58;;;;;;;3.17;2.30;;;16.90;99.90;;;;;;8381181;28;20313;-66
2022/10/01 10:51:02;;;;;;;3.00;2.70;;;16.80;99.10;;;;;;8379692;28;20216;-68
2022/10/01 10:55:22;;;;;;;4.37;2.70;;;16.90;99.10;;;;;;8347422;28;20217;-68
2022/10/01 10:59:23;;;;;;;2.33;2.13;;;16.80;93.50;;;;;;8363075;28;20193;-68
2022/10/01 11:03:28;;;;;;;2.87;2.50;;;16.70;99.90;;;;;;8358271;28;20200;-68
2022/10/01 11:07:30;;;;;;;3.83;2.30;;;16.60;99.90;;;;;;8360018;28;20189;-68
2022/10/01 11:12:06;;;;;;;3.63;2.60;;;16.60;99.90;;;;;;8366746;28;20201;-68
2022/10/01 11:16:37;;;;;;;2.83;2.00;;;16.50;99.90;;;;;;8365775;28;20178;-68
2022/10/01 11:21:00;;;;;;;5.63;2.60;;;16.50;99.90;;;;;;8355810;28;20191;-67
2022/10/01 11:25:39;;;;;;;4.63;3.00;;;16.60;99.90;;;;;;8358771;28;20306;-68
2022/10/01 11:29:51;;;;;;;2.40;2.20;;;16.70;99.90;;;;;;8356894;28;20182;-68
2022/10/01 11:34:04;;;;;;;4.37;2.83;;;16.90;99.90;;;;;;8379641;28;20214;-66
2022/10/01 11:38:14;;;;;;;2.53;2.20;;;17.10;99.90;;;;;;8356802;28;20194;-67
2022/10/01 11:42:23;;;;;;;2.83;1.93;;;17.20;94.50;;;;;;8364645;28;20220;-67
2022/10/01 11:47:02;;;;;;;3.97;2.13;;;17.30;97.50;;;;;;8360992;28;20711;-69
2022/10/01 11:51:14;;;;;;;5.43;2.00;;;17.50;89.80;;;;;;8357437;28;20276;-67
2022/10/01 11:59:53;;;;;;;3.50;2.30;;;17.70;58.20;;;;;;8361746;28;20187;-68
2022/10/01 12:04:27;;;;;;;3.20;2.50;;;17.70;47.40;;;;;;8357383;28;20216;-68
2022/10/01 12:08:33;;;;;;;3.57;2.10;;;17.90;31.30;;;;;;8349135;28;20834;-68
2022/10/01 12:12:51;;;;;;;3.00;2.00;;;17.80;12.50;;;;;;8350835;28;20242;-66
2022/10/01 12:17:04;;;;;;;2.70;1.93;;;17.50;10.10;;;;;;8363200;28;20758;-69
2022/10/01 12:21:19;;;;;;;2.63;1.70;;;17.20;20.30;;;;;;8360444;28;20190;-67
2022/10/01 12:25:27;;;;;;;2.30;2.00;;;17.00;56.40;;;;;;8360905;28;20200;-68
2022/10/01 12:29:40;;;;;;;4.67;1.87;;;16.70;99.90;;;;;;8365019;28;20287;-67
2022/10/01 12:34:26;;;;;;;2.37;2.17;;;16.50;99.90;;;;;;8355996;28;20281;-68
2022/10/01 12:38:55;;;;;;;2.93;1.80;;;16.00;99.90;;;;;;8261446;28;20190;-66
2022/10/01 12:43:19;;;;;;;3.50;2.23;;;15.60;99.90;;;;;;8374600;28;20193;-66
2022/10/01 12:47:37;;;;;;;3.03;2.30;;;15.30;99.90;;;;;;8366168;28;20304;-65
2022/10/01 12:51:51;;;;;;;3.10;2.27;;;14.90;1.00;;;;;;8379663;28;20213;-66
2022/10/01 12:56:11;;;;;;;4.63;2.40;;;14.80;1.00;;;;;;8358902;28;20174;-65
2022/10/01 13:00:19;;;;;;;3.33;2.53;;;14.80;1.00;;;;;;8361596;28;20286;-67
2022/10/01 13:04:34;;;;;;;2.87;2.50;;;14.70;1.00;;;;;;8379549;28;20620;-66
2022/10/01 13:09:23;;;;;;;5.00;2.73;;;14.70;60.50;;;;;;8364881;28;20261;-66
2022/10/01 13:13:32;;;;;;;4.27;2.67;;;14.40;96.00;;;;;;8326987;28;20243;-66
2022/10/01 13:17:48;;;;;;;4.90;2.90;;;14.50;99.90;;;;;;8367731;28;20178;-67
2022/10/01 13:22:13;;;;;;;3.37;2.90;;;14.40;99.90;;;;;;8363680;28;20185;-65
2022/10/01 13:26:23;;;;;;;3.83;2.33;;;14.30;99.90;;;;;;8353204;28;20266;-68
2022/10/01 13:30:31;;;;;;;2.90;2.10;;;14.20;99.90;;;;;;8369050;28;20187;-66
2022/10/01 13:34:40;;;;;;;1.70;1.43;;;14.10;99.90;;;;;;8365098;28;20537;-66
2022/10/01 13:38:43;;;;;;;2.67;1.60;;;14.00;99.90;;;;;;8354216;28;20280;-66
2022/10/01 13:42:46;;;;;;;4.40;1.63;;;13.80;99.90;;;;;;8371130;28;20185;-66
2022/10/01 13:46:58;;;;;;;3.20;2.00;;;13.60;99.90;;;;;;8360124;28;20209;-68
2022/10/01 13:51:08;;;;;;;2.43;1.50;;;13.30;1.00;;;;;;8362119;28;20324;-66
2022/10/01 13:55:29;;;;;;;1.70;1.40;;;13.10;99.90;;;;;;8358660;28;20182;-66
2022/10/01 13:59:34;;;;;;;2.03;1.30;;;12.90;22.70;;;;;;8359002;28;20184;-66
2022/10/01 14:03:50;;;;;;;1.43;1.10;;;12.80;1.00;;;;;;8353324;28;20223;-67
2022/10/01 14:07:56;;;;;;;1.40;1.13;;;12.70;1.00;;;;;;8365841;28;20188;-66
2022/10/01 14:16:45;;;;;;;2.47;1.70;;;12.50;99.90;;;;;;8366756;28;20184;-67
2022/10/01 14:21:01;;;;;;;2.20;1.40;;;12.40;99.90;;;;;;8366678;28;20166;-68
2022/10/01 14:25:08;;;;;;;1.40;1.07;;;12.30;99.90;;;;;;8366302;28;20273;-66
2022/10/01 14:29:35;;;;;;;1.43;1.30;;;12.20;99.90;;;;;;8364901;28;20267;-66
2022/10/01 14:33:44;;;;;;;1.67;1.33;;;12.10;1.00;;;;;;8365433;28;20296;-67
2022/10/01 14:37:46;;;;;;;3.23;1.83;;;11.90;1.00;;;;;;8346236;28;20189;-66
2022/10/01 14:41:49;;;;;;;3.27;2.00;;;11.80;1.00;;;;;;8364269;28;20188;-66
2022/10/01 14:45:59;;;;;;;2.90;1.90;;;11.80;99.90;;;;;;8361167;28;20185;-66
2022/10/01 14:50:09;;;;;;;2.63;1.80;;;11.70;99.90;;;;;;8362280;28;20177;-67
2022/10/01 14:54:11;;;;;;;2.20;1.57;;;11.60;99.90;;;;;;8364268;28;20211;-67
2022/10/01 14:58:28;;;;;;;2.00;1.73;;;11.60;99.90;;;;;;8357835;28;20189;-66
2022/10/01 15:02:29;;;;;;;3.40;1.97;;;11.60;99.90;;;;;;8357690;28;20232;-67
2022/10/01 15:06:41;;;;;;;2.20;1.67;;;11.60;99.90;;;;;;8355553;28;20186;-67
2022/10/01 15:10:47;;;;;;;3.77;2.00;;;11.60;99.90;;;;;;8349323;28;20298;-67
2022/10/01 15:14:53;;;;;;;2.97;1.70;;;11.60;99.90;;;;;;8360972;28;20280;-68
2022/10/01 15:19:00;;;;;;;2.60;2.03;;;11.60;99.90;;;;;;8364312;28;20185;-67
2022/10/01 15:23:04;;;;;;;2.47;1.60;;;11.60;99.90;;;;;;8343756;28;20185;-67
2022/10/01 15:27:07;;;;;;;2.43;2.00;;;11.60;99.90;;;;;;8363523;28;20261;-68
2022/10/01 15:31:08;;;;;;;1.50;1.40;;;11.60;1.00;;;;;;8355792;28;20258;-68
2022/10/01 15:35:12;;;;;;;3.17;1.67;;;11.70;1.00;;;;;;8372053;28;20192;-68
2022/10/01 15:39:29;;;;;;;1.63;1.43;;;11.70;1.00;;;;;;8362257;28;20640;-68
2022/10/01 15:43:34;;;;;;;2.13;1.50;;;11.70;99.90;;;;;;8364985;28;20236;-68
2022/10/01 15:47:46;;;;;;;1.70;1.60;;;11.60;1.00;;;;;;8363327;28;20247;-68
2022/10/01 15:56:35;;;;;;;2.20;1.90;;;11.50;99.90;;;;;;8346961;28;20216;-69
2022/10/01 16:00:46;;;;;;;2.73;2.10;;;11.40;99.90;;;;;;8356554;28;20228;-68
2022/10/01 16:04:49;;;;;;;2.27;2.07;;;11.40;99.90;;;;;;8356394;28;20192;-67
2022/10/01 16:09:10;;;;;;;2.10;1.73;;;11.40;38.30;;;;;;8364333;28;20195;-67
2022/10/01 16:13:37;;;;;;;3.30;1.93;;;11.40;46.60;;;;;;8364529;28;20217;-68
2022/10/01 16:17:38;;;;;;;4.13;2.30;;;11.40;1.00;;;;;;8359336;28;20213;-67
2022/10/01 16:21:40;;;;;;;2.93;2.17;;;11.40;99.90;;;;;;8365104;28;20200;-67
2022/10/01 16:25:43;;;;;;;2.47;2.00;;;11.40;99.90;;;;;;8366819;28;20224;-68
2022/10/01 16:30:01;;;;;;;2.70;2.10;;;11.40;99.90;;;;;;8380809;28;20191;-67
2022/10/01 16:34:02;;;;;;;2.73;2.30;;;11.40;99.90;;;;;;8379401;28;20208;-67
2022/10/01 16:38:07;;;;;;;3.10;2.30;;;11.50;1.00;;;;;;8352840;28;20184;-67
2022/10/01 16:42:18;;;;;;;4.43;2.30;;;11.50;1.00;;;;;;8360875;28;20185;-67
2022/10/01 16:46:19;;;;;;;2.80;2.10;;;11.50;1.00;;;;;;8362405;28;20274;-67
2022/10/01 16:50:21;;;;;;;2.97;2.30;;;11.40;8.70;;;;;;8365735;28;20189;-67
2022/10/01 16:54:24;;;;;;;3.00;2.30;;;11.40;99.90;;;;;;8359739;28;20672;-68
2022/10/01 16:58:26;;;;;;;3.60;2.57;;;11.40;99.90;;;;;;8364147;28;20197;-67
2022/10/01 17:02:27;;;;;;;4.20;2.57;;;11.40;1.00;;;;;;8364840;28;20201;-69
2022/10/01 17:06:28;;;;;;;2.87;2.10;;;11.30;99.90;;;;;;8366971;28;20185;-70
2022/10/01 17:10:34;;;;;;;2.47;2.13;;;11.30;54.60;;;;;;8369191;28;20195;-69
2022/10/01 17:14:35;;;;;;;4.07;2.23;;;11.30;99.90;;;;;;8369489;28;20223;-66
2022/10/01 17:18:36;;;;;;;3.40;2.43;;;11.20;3.60;;;;;;8360998;28;20192;-68
2022/10/01 17:22:43;;;;;;;2.90;2.40;;;11.20;99.90;;;;;;8365567;28;20184;-67
2022/10/01 17:26:44;;;;;;;3.53;3.13;;;11.10;99.90;;;;;;8373979;28;20189;-67
2022/10/01 17:30:46;;;;;;;3.20;2.50;;;11.00;99.90;;;;;;8361587;28;20188;-67
2022/10/01 17:34:48;;;;;;;3.93;2.70;;;11.00;99.90;;;;;;8352521;28;20217;-68
2022/10/01 17:38:49;;;;;;;3.23;2.93;;;10.90;1.00;;;;;;8358134;28;20192;-67
2022/10/01 17:42:50;;;;;;;3.67;2.80;;;10.90;87.30;;;;;;8364622;28;20266;-68
2022/10/01 17:46:51;;;;;;;4.20;3.10;;;10.90;99.90;;;;;;8365841;28;20192;-66
2022/10/01 17:51:18;;;;;;;5.40;3.30;;;10.80;99.90;;;;;;8364047;28;20191;-67
2022/10/01 17:55:22;;;;;;;4.97;3.10;;;10.80;99.90;;;;;;8361395;28;20207;-67
2022/10/01 17:59:23;;;;;;;3.53;3.23;;;10.80;99.90;;;;;;8372399;28;20182;-67
2022/10/01 18:03:23;;;;;;;3.87;3.20;;;10.80;99.90;;;;;;8360037;28;20200;-67
2022/10/01 18:07:25;;;;;;;6.37;3.30;;;10.80;99.90;;;;;;8362673;28;20255;-67
2022/10/01 18:11:28;;;;;;;4.03;3.30;;;10.80;99.90;;;;;;8363304;28;20212;-68
2022/10/01 18:15:28;;;;;;;3.60;3.20;;;10.80;99.90;;;;;;8362335;28;20194;-69
2022/10/01 18:19:29;;;;;;;5.00;3.07;;;10.80;99.90;;;;;;8365307;28;20189;-68
2022/10/01 18:23:31;;;;;;;5.53;3.80;;;10.80;99.90;;;;;;8356655;28;20210;-67
2022/10/01 18:27:31;;;;;;;5.13;4.10;;;10.80;99.90;;;;;;8361740;28;20195;-68
2022/10/01 18:31:36;;;;;;;4.17;3.43;;;10.80;99.90;;;;;;8364770;28;20630;-68
2022/10/01 18:35:42;;;;;;;6.87;3.70;;;10.80;99.90;;;;;;8364446;28;20185;-68
2022/10/01 18:39:53;;;;;;;5.80;4.10;;;10.90;99.90;;;;;;8360752;28;20188;-69
2022/10/01 18:43:54;;;;;;;5.00;3.77;;;10.90;1.00;;;;;;8374985;28;20236;-67
2022/10/01 18:48:17;;;;;;;5.00;4.20;;;10.90;99.90;;;;;;8356210;28;20193;-68
2022/10/01 18:52:42;;;;;;;4.60;4.10;;;10.90;99.90;;;;;;8362780;28;20295;-68
2022/10/01 18:57:14;;;;;;;6.27;4.07;;;10.90;99.90;;;;;;8353426;28;20193;-68
2022/10/01 19:01:59;;;;;;;5.00;3.90;;;10.90;99.90;;;;;;8351337;28;20219;-68
2022/10/01 19:06:37;;;;;;;4.93;3.30;;;10.80;99.90;;;;;;8333562;28;20284;-69
2022/10/01 19:10:48;;;;;;;5.37;3.80;;;10.70;99.90;;;;;;8359401;28;20175;-69
2022/10/01 19:15:23;;;;;;;5.90;4.27;;;10.60;1.00;;;;;;8360289;28;20213;-68
2022/10/01 19:19:36;;;;;;;4.90;3.67;;;10.50;1.00;;;;;;8364383;28;20184;-69
2022/10/01 19:23:49;;;;;;;4.43;3.90;;;10.30;99.90;;;;;;8360173;28;20196;-71
2022/10/01 19:28:35;;;;;;;5.50;4.17;;;10.20;99.90;;;;;;8356819;28;20197;-68
2022/10/01 19:32:58;;;;;;;4.87;4.00;;;10.10;99.90;;;;;;8243584;28;20238;-68
2022/10/01 19:37:05;;;;;;;5.53;4.07;;;10.00;99.90;;;;;;8299199;28;20195;-68
2022/10/01 19:41:22;;;;;;;6.33;3.80;;;9.90;99.90;;;;;;8349474;28;20189;-68
2022/10/01 19:45:38;;;;;;;5.77;4.00;;;9.90;99.90;;;;;;8361482;28;20258;-68
2022/10/01 19:49:41;;;;;;;5.10;4.50;;;9.80;99.90;;;;;;8350631;28;20188;-68
2022/10/01 19:53:45;;;;;;;4.50;4.00;;;9.70;99.90;;;;;;8359761;28;20253;-68
2022/10/01 19:57:46;;;;;;;5.70;4.20;;;9.70;99.90;;;;;;8353201;28;20183;-68
2022/10/01 20:01:54;;;;;;;8.43;4.60;;;9.70;99.90;;;;;;8359609;28;20198;-68
2022/10/01 20:06:19;;;;;;;5.60;4.50;;;9.60;99.90;;;;;;8356745;28;20393;-69
2022/10/01 20:10:30;;;;;;;6.30;4.87;;;9.60;99.90;;;;;;8366692;28;20194;-68
2022/10/01 20:15:08;;;;;;;5.73;4.23;;;9.70;99.90;;;;;;8361287;28;20242;-68
2022/10/01 20:19:31;;;;;;;7.47;4.57;;;9.80;99.90;;;;;;8361522;28;20518;-68
2022/10/01 20:23:35;;;;;;;4.10;3.70;;;9.90;99.90;;;;;;8360196;28;20214;-68
2022/10/01 20:27:54;;;;;;;3.83;3.33;;;10.00;99.90;;;;;;8359651;28;20601;-67
2022/10/01 20:32:12;;;;;;;4.70;3.73;;;10.20;99.90;;;;;;8373033;28;20200;-68
2022/10/01 20:36:41;;;;;;;4.47;3.93;;;10.30;99.90;;;;;;8358509;28;20189;-68
2022/10/01 20:40:56;;;;;;;4.10;3.60;;;10.40;99.90;;;;;;8344497;28;20193;-68
2022/10/01 20:44:59;;;;;;;5.83;3.07;;;10.50;99.90;;;;;;8357746;28;20195;-68
2022/10/01 20:49:11;;;;;;;4.33;3.17;;;10.60;99.90;;;;;;8364617;28;20191;-75
2022/10/01 20:53:37;;;;;;;4.07;3.33;;;10.60;99.90;;;;;;8366055;28;20273;-68
2022/10/01 20:57:38;;;;;;;4.07;3.67;;;10.60;99.90;;;;;;8364630;28;20212;-68
2022/10/01 21:01:52;;;;;;;4.07;3.57;;;10.60;99.90;;;;;;8370615;28;20207;-68
2022/10/01 21:06:13;;;;;;;4.37;3.50;;;10.70;99.90;;;;;;8375626;28;20200;-67
2022/10/01 21:10:20;;;;;;;4.37;2.77;;;10.70;99.90;;;;;;8381707;28;20483;-68
2022/10/01 21:14:37;;;;;;;4.37;3.40;;;10.70;99.90;;;;;;8353378;28;20212;-68
2022/10/01 21:19:05;;;;;;;3.93;3.03;;;10.80;99.90;;;;;;8376722;28;20190;-68
2022/10/01 21:23:44;;;;;;;3.47;3.10;;;10.80;99.90;;;;;;8377803;28;20192;-69
2022/10/01 21:28:18;;;;;;;3.10;2.80;;;10.80;99.90;;;;;;8343596;28;20201;-69
2022/10/01 21:32:48;;;;;;;4.40;3.07;;;10.80;99.90;;;;;;8366965;28;20205;-68
2022/10/01 21:37:12;;;;;;;3.70;2.70;;;10.80;99.90;;;;;;8360656;28;20219;-68
2022/10/01 21:42:01;;;;;;;2.47;2.27;;;10.70;99.90;;;;;;8359868;28;20185;-69
2022/10/01 21:46:29;;;;;;;3.10;2.40;;;10.60;99.90;;;;;;8342457;28;20184;-70
2022/10/01 21:50:48;;;;;;;2.17;1.70;;;10.50;99.90;;;;;;8367280;28;20244;-69